createdAt,value
2022-08-01T00:00:08.949Z,20.86
2022-08-01T00:02:39.224Z,20.85
2022-08-01T00:05:08.040Z,20.83
2022-08-01T00:07:35.880Z,20.80
2022-08-01T00:10:09.578Z,20.74
2022-08-01T00:12:36.508Z,20.73
2022-08-01T00:15:06.521Z,20.68
2022-08-01T00:17:33.534Z,20.65
2022-08-01T00:20:00.314Z,20.65
2022-08-01T00:22:27.255Z,20.60
2022-08-01T00:24:53.882Z,20.60
2022-08-01T00:27:20.554Z,20.58
2022-08-01T00:30:10.131Z,20.53
2022-08-01T00:32:34.174Z,20.48
2022-08-01T00:35:01.114Z,20.36
2022-08-01T00:37:27.901Z,20.29
2022-08-01T00:39:54.609Z,20.14
2022-08-01T00:42:22.076Z,20.14
2022-08-01T00:44:48.781Z,19.99
2022-08-01T00:47:15.527Z,20.01
2022-08-01T00:49:42.500Z,19.89
2022-08-01T00:52:10.035Z,19.92
2022-08-01T00:54:37.086Z,19.86
2022-08-01T00:57:04.662Z,19.76
2022-08-01T00:59:31.504Z,19.71
2022-08-01T01:01:58.846Z,19.73
2022-08-01T01:04:26.137Z,19.70
2022-08-01T01:06:58.562Z,19.66
2022-08-01T01:09:34.295Z,19.63
2022-08-01T01:12:35.997Z,19.59
2022-08-01T01:15:11.757Z,19.54
2022-08-01T01:17:53.949Z,19.48
2022-08-01T01:20:25.292Z,19.43
2022-08-01T01:23:06.918Z,19.40
2022-08-01T01:26:03.066Z,19.40
2022-08-01T01:28:51.481Z,19.44
2022-08-01T01:31:22.319Z,19.53
2022-08-01T01:33:50.650Z,19.58
2022-08-01T01:36:20.407Z,19.60
2022-08-01T01:38:48.604Z,19.53
2022-08-01T01:41:19.079Z,19.64
2022-08-01T01:43:47.832Z,19.64
2022-08-01T01:46:19.936Z,19.65
2022-08-01T01:48:48.626Z,19.62
2022-08-01T01:51:16.365Z,19.53
2022-08-01T01:53:45.121Z,19.53
2022-08-01T01:56:14.946Z,19.51
2022-08-01T01:58:43.245Z,19.41
2022-08-01T02:01:14.722Z,19.49
2022-08-01T02:03:44.379Z,19.40
2022-08-01T02:06:15.725Z,19.39
2022-08-01T02:08:44.031Z,19.41
2022-08-01T02:11:20.728Z,19.34
2022-08-01T02:14:09.320Z,19.37
2022-08-01T02:16:38.532Z,19.37
2022-08-01T02:19:05.412Z,19.32
2022-08-01T02:21:38.356Z,19.30
2022-08-01T02:24:21.977Z,19.31
2022-08-01T02:26:59.893Z,19.33
2022-08-01T02:29:34.147Z,19.35
2022-08-01T02:32:02.742Z,19.35
2022-08-01T02:34:33.288Z,19.35
2022-08-01T02:37:02.092Z,19.32
2022-08-01T02:39:31.023Z,19.36
2022-08-01T02:42:04.647Z,19.28
2022-08-01T02:44:36.239Z,19.33
2022-08-01T02:47:05.876Z,19.37
2022-08-01T02:49:40.107Z,19.29
2022-08-01T02:52:10.948Z,19.35
2022-08-01T02:54:39.953Z,19.39
2022-08-01T02:57:13.655Z,19.40
2022-08-01T02:59:43.426Z,19.37
2022-08-01T03:02:13.499Z,19.42
2022-08-01T03:04:42.459Z,19.35
2022-08-01T03:07:11.452Z,19.44
2022-08-01T03:09:41.756Z,19.39
2022-08-01T03:12:14.727Z,19.46
2022-08-01T03:14:44.068Z,19.48
2022-08-01T03:17:12.506Z,19.46
2022-08-01T03:19:40.272Z,19.51
2022-08-01T03:22:14.015Z,19.54
2022-08-01T03:24:42.408Z,19.57
2022-08-01T03:27:10.088Z,19.60
2022-08-01T03:29:40.329Z,19.68
2022-08-01T03:32:08.374Z,19.74
2022-08-01T03:34:35.577Z,19.96
2022-08-01T03:37:13.446Z,20.21
2022-08-01T03:40:15.705Z,20.43
2022-08-01T03:42:46.672Z,20.62
2022-08-01T03:45:22.400Z,20.75
2022-08-01T03:47:53.676Z,20.89
2022-08-01T03:50:23.681Z,21.02
2022-08-01T03:52:52.269Z,21.12
2022-08-01T03:55:21.757Z,21.37
2022-08-01T03:57:49.505Z,21.60
2022-08-01T04:00:19.421Z,21.71
2022-08-01T04:02:48.352Z,21.80
2022-08-01T04:05:16.470Z,21.94
2022-08-01T04:07:47.666Z,21.86
2022-08-01T04:10:14.481Z,21.81
2022-08-01T04:12:41.256Z,21.95
2022-08-01T04:15:08.384Z,21.80
2022-08-01T04:17:35.269Z,21.77
2022-08-01T04:20:01.947Z,21.74
2022-08-01T04:22:29.143Z,21.79
2022-08-01T04:24:58.471Z,21.82
2022-08-01T04:27:50.529Z,21.83
2022-08-01T04:30:23.666Z,21.74
2022-08-01T04:32:52.901Z,21.56
2022-08-01T04:35:23.358Z,21.43
2022-08-01T04:38:10.878Z,21.49
2022-08-01T04:40:39.065Z,21.50
2022-08-01T04:43:06.926Z,21.47
2022-08-01T04:45:34.407Z,21.49
2022-08-01T04:48:02.095Z,21.45
2022-08-01T04:50:29.592Z,21.46
2022-08-01T04:52:56.961Z,21.44
2022-08-01T04:55:24.247Z,21.58
2022-08-01T04:57:51.244Z,21.59
2022-08-01T05:00:17.959Z,21.65
2022-08-01T05:02:45.082Z,21.58
2022-08-01T05:05:11.917Z,21.58
2022-08-01T05:07:44.893Z,21.62
2022-08-01T05:10:12.896Z,21.65
2022-08-01T05:12:39.604Z,21.71
2022-08-01T05:15:13.019Z,21.76
2022-08-01T05:17:43.405Z,21.73
2022-08-01T05:20:12.407Z,21.81
2022-08-01T05:22:39.346Z,21.74
2022-08-01T05:25:06.785Z,21.82
2022-08-01T05:27:33.616Z,21.81
2022-08-01T05:30:00.670Z,21.94
2022-08-01T05:32:28.247Z,22.00
2022-08-01T05:34:54.911Z,21.92
2022-08-01T05:37:21.573Z,22.01
2022-08-01T05:39:48.574Z,22.08
2022-08-01T05:42:15.240Z,22.06
2022-08-01T05:44:42.150Z,22.16
2022-08-01T05:47:09.144Z,22.15
2022-08-01T05:49:36.036Z,22.22
2022-08-01T05:52:03.445Z,22.17
2022-08-01T05:54:30.844Z,22.13
2022-08-01T05:57:00.805Z,22.13
2022-08-01T05:59:27.487Z,22.10
2022-08-01T06:01:55.032Z,22.17
2022-08-01T06:04:22.409Z,22.17
2022-08-01T06:06:49.161Z,22.28
2022-08-01T06:09:15.875Z,22.25
2022-08-01T06:11:42.842Z,22.32
2022-08-01T06:14:09.544Z,22.39
2022-08-01T06:16:36.234Z,22.45
2022-08-01T06:19:03.312Z,22.56
2022-08-01T06:21:30.034Z,22.66
2022-08-01T06:23:56.649Z,22.73
2022-08-01T06:26:23.606Z,22.71
2022-08-01T06:28:50.390Z,22.86
2022-08-01T06:31:17.084Z,22.93
2022-08-01T06:33:44.200Z,23.01
2022-08-01T06:36:10.859Z,23.07
2022-08-01T06:38:38.506Z,23.06
2022-08-01T06:41:05.501Z,23.11
2022-08-01T06:43:32.336Z,23.15
2022-08-01T06:45:59.147Z,23.23
2022-08-01T06:48:26.200Z,23.25
2022-08-01T06:51:08.944Z,23.24
2022-08-01T06:53:37.406Z,23.24
2022-08-01T06:56:04.957Z,23.26
2022-08-01T06:58:32.018Z,23.27
2022-08-01T07:00:59.526Z,23.29
2022-08-01T07:03:27.757Z,23.36
2022-08-01T07:06:15.964Z,23.51
2022-08-01T07:08:42.721Z,23.65
2022-08-01T07:11:09.386Z,23.73
2022-08-01T07:13:44.102Z,23.71
2022-08-01T07:16:13.943Z,23.91
2022-08-01T07:18:41.552Z,23.95
2022-08-01T07:21:16.744Z,23.98
2022-08-01T07:23:55.980Z,23.94
2022-08-01T07:26:23.321Z,24.01
2022-08-01T07:28:50.050Z,24.06
2022-08-01T07:31:17.150Z,24.16
2022-08-01T07:33:47.964Z,24.30
2022-08-01T07:36:17.404Z,24.40
2022-08-01T07:38:45.745Z,24.51
2022-08-01T07:41:12.460Z,24.63
2022-08-01T07:43:39.261Z,24.66
2022-08-01T07:46:06.636Z,24.80
2022-08-01T07:48:34.499Z,24.84
2022-08-01T07:51:01.631Z,24.91
2022-08-01T07:53:28.817Z,24.99
2022-08-01T07:55:55.485Z,25.04
2022-08-01T07:58:22.184Z,25.05
2022-08-01T08:00:49.313Z,25.15
2022-08-01T08:03:16.326Z,25.16
2022-08-01T08:05:59.583Z,25.19
2022-08-01T08:08:27.460Z,25.26
2022-08-01T08:10:54.635Z,25.28
2022-08-01T08:13:21.963Z,25.40
2022-08-01T08:15:49.251Z,25.43
2022-08-01T08:18:16.979Z,25.46
2022-08-01T08:20:44.216Z,25.43
2022-08-01T08:23:43.055Z,25.42
2022-08-01T08:26:12.287Z,25.36
2022-08-01T08:28:40.598Z,25.36
2022-08-01T08:31:24.856Z,25.38
2022-08-01T08:33:55.498Z,25.38
2022-08-01T08:36:22.270Z,25.38
2022-08-01T08:38:58.417Z,25.40
2022-08-01T08:41:25.787Z,25.40
2022-08-01T08:43:52.628Z,25.41
2022-08-01T08:46:19.980Z,25.42
2022-08-01T08:48:57.032Z,25.50
2022-08-01T08:51:27.108Z,25.55
2022-08-01T08:53:57.218Z,25.61
2022-08-01T08:56:30.884Z,25.67
2022-08-01T08:58:58.490Z,25.73
2022-08-01T09:01:25.457Z,25.80
2022-08-01T09:03:52.203Z,25.83
2022-08-01T09:06:19.003Z,25.80
2022-08-01T09:08:46.304Z,25.79
2022-08-01T09:11:16.058Z,25.82
2022-08-01T09:14:13.277Z,25.88
2022-08-01T09:16:48.705Z,25.92
2022-08-01T09:19:39.514Z,25.93
2022-08-01T09:22:13.617Z,26.03
2022-08-01T09:24:41.755Z,26.03
2022-08-01T09:27:22.139Z,25.95
2022-08-01T09:30:01.481Z,26.01
2022-08-01T09:32:36.139Z,25.99
2022-08-01T09:35:43.947Z,25.98
2022-08-01T09:38:19.751Z,26.05
2022-08-01T09:40:58.164Z,26.13
2022-08-01T09:43:28.759Z,26.21
2022-08-01T09:45:59.584Z,26.23
2022-08-01T09:48:29.627Z,26.25
2022-08-01T09:51:05.132Z,26.22
2022-08-01T09:53:52.157Z,26.30
2022-08-01T09:56:21.428Z,26.38
2022-08-01T09:59:02.606Z,26.48
2022-08-01T10:01:43.711Z,26.56
2022-08-01T10:04:15.304Z,26.69
2022-08-01T10:06:45.083Z,26.80
2022-08-01T10:09:15.281Z,26.88
2022-08-01T10:11:45.032Z,26.92
2022-08-01T10:14:17.795Z,27.03
2022-08-01T10:16:46.312Z,27.15
2022-08-01T10:19:24.423Z,27.27
2022-08-01T10:21:57.842Z,27.32
2022-08-01T10:24:29.525Z,27.32
2022-08-01T10:27:12.152Z,27.34
2022-08-01T10:30:19.968Z,27.35
2022-08-01T10:32:53.078Z,27.35
2022-08-01T10:35:47.541Z,27.27
2022-08-01T10:38:10.563Z,27.19
2022-08-01T10:40:39.847Z,27.14
2022-08-01T10:43:07.704Z,27.15
2022-08-01T10:45:35.189Z,27.15
2022-08-01T10:48:40.533Z,27.27
2022-08-01T10:51:17.944Z,27.33
2022-08-01T10:53:54.170Z,27.32
2022-08-01T10:56:26.788Z,27.35
2022-08-01T10:59:06.240Z,27.37
2022-08-01T11:01:37.574Z,27.35
2022-08-01T11:04:12.571Z,27.35
2022-08-01T11:06:45.941Z,27.45
2022-08-01T11:09:16.489Z,27.41
2022-08-01T11:12:06.131Z,27.47
2022-08-01T11:14:55.295Z,27.53
2022-08-01T11:17:38.011Z,27.56
2022-08-01T11:20:08.289Z,27.56
2022-08-01T11:22:59.995Z,27.52
2022-08-01T11:26:03.414Z,27.58
2022-08-01T11:28:36.461Z,27.56
2022-08-01T11:31:11.005Z,27.37
2022-08-01T11:33:45.951Z,27.37
2022-08-01T11:36:14.524Z,27.36
2022-08-01T11:38:45.628Z,27.36
2022-08-01T11:41:17.775Z,27.45
2022-08-01T11:44:03.364Z,27.47
2022-08-01T11:46:56.353Z,27.49
2022-08-01T11:49:28.985Z,27.44
2022-08-01T11:52:10.797Z,27.31
2022-08-01T11:54:47.154Z,27.26
2022-08-01T11:57:18.547Z,27.21
2022-08-01T11:59:55.414Z,27.20
2022-08-01T12:02:38.964Z,27.13
2022-08-01T12:05:12.909Z,27.20
2022-08-01T12:07:42.569Z,27.26
2022-08-01T12:10:12.758Z,27.29
2022-08-01T12:13:02.014Z,27.30
2022-08-01T12:15:38.088Z,27.31
2022-08-01T12:18:06.932Z,27.25
2022-08-01T12:20:36.706Z,27.27
2022-08-01T12:23:09.081Z,27.22
2022-08-01T12:25:37.495Z,27.23
2022-08-01T12:28:09.469Z,27.17
2022-08-01T12:30:38.779Z,27.27
2022-08-01T12:33:07.963Z,27.26
2022-08-01T12:35:37.424Z,27.23
2022-08-01T12:38:16.054Z,27.17
2022-08-01T12:40:45.501Z,27.14
2022-08-01T12:43:28.569Z,27.09
2022-08-01T12:46:00.227Z,27.01
2022-08-01T12:48:29.041Z,27.07
2022-08-01T12:50:59.137Z,27.06
2022-08-01T12:53:40.593Z,27.08
2022-08-01T12:56:09.168Z,27.18
2022-08-01T12:58:36.529Z,27.20
2022-08-01T13:01:05.435Z,27.16
2022-08-01T13:03:32.499Z,27.14
2022-08-01T13:05:59.652Z,27.22
2022-08-01T13:08:31.644Z,27.22
2022-08-01T13:11:05.748Z,27.35
2022-08-01T13:13:43.894Z,27.46
2022-08-01T13:16:18.114Z,27.49
2022-08-01T13:18:59.428Z,27.44
2022-08-01T13:21:29.108Z,27.42
2022-08-01T13:24:04.621Z,27.34
2022-08-01T13:26:46.902Z,27.22
2022-08-01T13:29:18.612Z,27.12
2022-08-01T13:31:46.212Z,27.08
2022-08-01T13:34:13.618Z,27.02
2022-08-01T13:36:46.873Z,26.97
2022-08-01T13:39:35.080Z,26.90
2022-08-01T13:42:01.984Z,26.90
2022-08-01T13:44:29.823Z,26.95
2022-08-01T13:46:57.037Z,27.00
2022-08-01T13:49:24.274Z,27.10
2022-08-01T13:51:51.979Z,27.16
2022-08-01T13:54:19.091Z,27.16
2022-08-01T13:56:45.908Z,27.15
2022-08-01T13:59:13.817Z,27.17
2022-08-01T14:01:40.625Z,27.18
2022-08-01T14:04:07.750Z,27.19
2022-08-01T14:06:36.078Z,27.22
2022-08-01T14:09:18.207Z,27.15
2022-08-01T14:11:50.915Z,27.02
2022-08-01T14:14:17.856Z,27.02
2022-08-01T14:16:45.990Z,26.97
2022-08-01T14:19:13.403Z,26.94
2022-08-01T14:21:40.093Z,26.92
2022-08-01T14:24:07.720Z,26.87
2022-08-01T14:26:34.947Z,26.87
2022-08-01T14:29:03.755Z,26.84
2022-08-01T14:31:34.032Z,26.79
2022-08-01T14:34:01.921Z,26.71
2022-08-01T14:36:31.281Z,26.77
2022-08-01T14:39:00.595Z,26.78
2022-08-01T14:41:28.778Z,26.78
2022-08-01T14:43:58.425Z,26.78
2022-08-01T14:46:25.123Z,26.74
2022-08-01T14:48:52.134Z,26.69
2022-08-01T14:51:18.826Z,26.74
2022-08-01T14:53:46.867Z,26.71
2022-08-01T14:56:18.398Z,26.67
2022-08-01T14:58:45.543Z,26.74
2022-08-01T15:01:12.294Z,26.78
2022-08-01T15:03:39.330Z,26.79
2022-08-01T15:06:07.405Z,26.81
2022-08-01T15:08:34.302Z,26.82
2022-08-01T15:11:02.585Z,26.70
2022-08-01T15:13:29.298Z,26.67
2022-08-01T15:16:00.102Z,26.68
2022-08-01T15:18:29.821Z,26.64
2022-08-01T15:21:01.094Z,26.70
2022-08-01T15:23:28.140Z,26.61
2022-08-01T15:25:54.878Z,26.49
2022-08-01T15:28:21.613Z,26.36
2022-08-01T15:30:48.545Z,26.26
2022-08-01T15:33:15.234Z,26.18
2022-08-01T15:35:43.603Z,26.09
2022-08-01T15:38:10.624Z,26.02
2022-08-01T15:40:37.354Z,25.91
2022-08-01T15:43:04.054Z,25.81
2022-08-01T15:45:47.298Z,25.80
2022-08-01T15:48:15.122Z,25.73
2022-08-01T15:50:42.098Z,25.72
2022-08-01T15:53:08.926Z,25.70
2022-08-01T15:55:38.255Z,25.69
2022-08-01T15:58:06.542Z,25.64
2022-08-01T16:00:38.757Z,25.60
2022-08-01T16:03:08.145Z,25.57
2022-08-01T16:05:42.518Z,25.47
2022-08-01T16:08:12.449Z,25.44
2022-08-01T16:10:39.250Z,25.41
2022-08-01T16:13:07.484Z,25.50
2022-08-01T16:15:39.229Z,25.47
2022-08-01T16:18:07.911Z,25.45
2022-08-01T16:20:35.890Z,25.39
2022-08-01T16:23:02.633Z,25.37
2022-08-01T16:25:29.533Z,25.36
2022-08-01T16:27:56.610Z,25.33
2022-08-01T16:30:23.434Z,25.21
2022-08-01T16:32:55.046Z,25.24
2022-08-01T16:35:36.293Z,25.18
2022-08-01T16:38:04.872Z,25.17
2022-08-01T16:40:34.972Z,25.16
2022-08-01T16:43:15.934Z,25.11
2022-08-01T16:45:43.241Z,25.06
2022-08-01T16:48:21.223Z,25.04
2022-08-01T16:50:49.603Z,25.00
2022-08-01T16:53:21.691Z,25.00
2022-08-01T16:55:50.929Z,24.94
2022-08-01T16:58:27.283Z,24.90
2022-08-01T17:01:56.187Z,24.92
2022-08-01T17:03:52.849Z,24.88
2022-08-01T17:06:22.168Z,24.75
2022-08-01T17:08:49.946Z,24.77
2022-08-01T17:11:17.274Z,24.71
2022-08-01T17:13:44.496Z,24.68
2022-08-01T17:16:11.911Z,24.63
2022-08-01T17:18:38.918Z,24.58
2022-08-01T17:21:06.358Z,24.51
2022-08-01T17:23:33.680Z,24.42
2022-08-01T17:26:00.496Z,24.34
2022-08-01T17:28:27.797Z,24.29
2022-08-01T17:30:54.762Z,24.29
2022-08-01T17:33:21.824Z,24.28
2022-08-01T17:35:48.896Z,24.24
2022-08-01T17:38:15.673Z,24.14
2022-08-01T17:40:43.962Z,24.20
2022-08-01T17:43:11.095Z,24.19
2022-08-01T17:45:50.943Z,24.13
2022-08-01T17:48:19.709Z,24.02
2022-08-01T17:50:47.737Z,24.06
2022-08-01T17:53:16.139Z,23.97
2022-08-01T17:55:55.452Z,23.95
2022-08-01T17:58:32.996Z,23.91
2022-08-01T18:01:12.605Z,23.88
2022-08-01T18:03:41.467Z,23.84
2022-08-01T18:06:09.840Z,23.73
2022-08-01T18:08:36.716Z,23.76
2022-08-01T18:11:03.761Z,23.73
2022-08-01T18:13:30.466Z,23.73
2022-08-01T18:15:57.514Z,23.69
2022-08-01T18:18:33.212Z,23.64
2022-08-01T18:21:04.132Z,23.63
2022-08-01T18:23:33.501Z,23.61
2022-08-01T18:26:02.425Z,23.59
2022-08-01T18:28:35.354Z,23.57
2022-08-01T18:31:06.346Z,23.55
2022-08-01T18:33:35.198Z,23.48
2022-08-01T18:36:04.244Z,23.49
2022-08-01T18:38:33.123Z,23.47
2022-08-01T18:41:01.303Z,23.43
2022-08-01T18:43:28.751Z,23.34
2022-08-01T18:45:58.636Z,23.30
2022-08-01T18:48:25.449Z,23.27
2022-08-01T18:50:54.001Z,23.30
2022-08-01T18:53:25.147Z,23.23
2022-08-01T18:55:51.801Z,23.26
2022-08-01T18:58:18.708Z,23.24
2022-08-01T19:00:45.683Z,23.23
2022-08-01T19:03:13.708Z,23.20
2022-08-01T19:05:40.387Z,23.21
2022-08-01T19:08:08.175Z,23.20
2022-08-01T19:10:36.895Z,23.16
2022-08-01T19:13:04.021Z,23.17
2022-08-01T19:15:31.269Z,23.16
2022-08-01T19:17:58.032Z,23.14
2022-08-01T19:20:24.780Z,23.16
2022-08-01T19:22:51.892Z,23.15
2022-08-01T19:25:18.645Z,23.11
2022-08-01T19:27:49.872Z,23.13
2022-08-01T19:30:18.660Z,23.13
2022-08-01T19:32:47.421Z,23.08
2022-08-01T19:35:16.880Z,23.04
2022-08-01T19:37:47.291Z,23.01
2022-08-01T19:40:27.172Z,22.99
2022-08-01T19:42:57.313Z,22.98
2022-08-01T19:45:28.431Z,22.98
2022-08-01T19:47:57.033Z,22.94
2022-08-01T19:50:28.751Z,22.94
2022-08-01T19:52:56.537Z,22.88
2022-08-01T19:55:28.690Z,22.93
2022-08-01T20:00:44.740Z,22.86
2022-08-01T20:03:14.987Z,22.87
2022-08-01T20:05:41.811Z,22.87
2022-08-01T20:08:09.805Z,22.77
2022-08-01T20:10:40.637Z,22.75
2022-08-01T20:13:09.650Z,22.82
2022-08-01T20:15:38.841Z,22.81
2022-08-01T20:18:05.935Z,22.82
2022-08-01T20:20:35.266Z,22.83
2022-08-01T20:23:03.612Z,22.80
2022-08-01T20:25:40.272Z,22.76
2022-08-01T20:28:11.041Z,22.76
2022-08-01T20:30:39.776Z,22.78
2022-08-01T20:33:08.300Z,22.76
2022-08-01T20:35:53.391Z,22.76
2022-08-01T20:38:27.745Z,22.80
2022-08-01T20:40:58.757Z,22.82
2022-08-01T20:43:28.840Z,22.69
2022-08-01T20:45:56.875Z,22.79
2022-08-01T20:48:26.550Z,22.76
2022-08-01T20:51:12.333Z,22.68
2022-08-01T20:53:43.403Z,22.73
2022-08-01T20:56:14.633Z,22.73
2022-08-01T20:59:06.531Z,22.71
2022-08-01T21:01:41.247Z,22.69
2022-08-01T21:04:26.743Z,22.64
2022-08-01T21:07:23.739Z,22.61
2022-08-01T21:10:02.513Z,22.59
2022-08-01T21:12:43.781Z,22.56
2022-08-01T21:15:15.460Z,22.53
2022-08-01T21:18:02.567Z,22.52
2022-08-01T21:20:33.433Z,22.48
2022-08-01T21:23:15.008Z,22.55
2022-08-01T21:25:43.735Z,22.55
2022-08-01T21:28:14.871Z,22.46
2022-08-01T21:30:42.389Z,22.51
2022-08-01T21:33:22.786Z,22.44
2022-08-01T21:35:55.599Z,22.44
2022-08-01T21:38:23.947Z,22.51
2022-08-01T21:40:52.652Z,22.46
2022-08-01T21:43:21.317Z,22.43
2022-08-01T21:45:57.976Z,22.39
2022-08-01T21:48:26.859Z,22.33
2022-08-01T21:50:59.456Z,22.37
2022-08-01T21:53:36.916Z,22.39
2022-08-01T21:56:14.816Z,22.39
2022-08-01T21:59:14.022Z,22.39
2022-08-01T22:01:52.175Z,22.31
2022-08-01T22:04:33.583Z,22.40
2022-08-01T22:07:02.762Z,22.39
2022-08-01T22:09:31.900Z,22.37
2022-08-01T22:12:05.300Z,22.38
2022-08-01T22:14:33.681Z,22.38
2022-08-01T22:17:01.365Z,22.36
2022-08-01T22:19:44.032Z,22.28
2022-08-01T22:22:51.164Z,22.33
2022-08-01T22:25:00.391Z,22.29
2022-08-01T22:28:08.948Z,22.27
2022-08-01T22:30:16.290Z,22.22
2022-08-01T22:32:45.551Z,22.17
2022-08-01T22:35:32.737Z,22.19
2022-08-01T22:37:59.696Z,22.18
2022-08-01T22:40:28.224Z,22.15
2022-08-01T22:43:02.246Z,22.09
2022-08-01T22:45:40.689Z,22.12
2022-08-01T22:48:24.597Z,22.10
2022-08-01T22:51:32.807Z,22.06
2022-08-01T22:54:12.836Z,22.07
2022-08-01T22:56:47.269Z,22.07
2022-08-01T22:59:17.256Z,21.98
2022-08-01T23:01:48.419Z,22.00
2022-08-01T23:04:34.640Z,21.98
2022-08-01T23:07:05.015Z,21.99
2022-08-01T23:09:39.336Z,21.97
2022-08-01T23:12:22.826Z,21.92
2022-08-01T23:14:52.830Z,21.87
2022-08-01T23:17:26.758Z,21.81
2022-08-01T23:20:01.511Z,21.76
2022-08-01T23:22:31.387Z,21.68
2022-08-01T23:25:05.067Z,21.68
2022-08-01T23:27:55.798Z,21.69
2022-08-01T23:30:25.676Z,21.69
2022-08-01T23:32:52.582Z,21.61
2022-08-01T23:35:19.931Z,21.57
2022-08-01T23:37:46.958Z,21.64
2022-08-01T23:40:13.675Z,21.63
2022-08-01T23:42:40.416Z,21.61
2022-08-01T23:45:08.110Z,21.60
2022-08-01T23:47:34.791Z,21.59
2022-08-01T23:50:01.571Z,21.58
2022-08-01T23:52:29.352Z,21.51
2022-08-01T23:54:59.746Z,21.58
2022-08-01T23:57:30.587Z,21.49
2022-08-01T23:59:57.253Z,21.62
